Hauptseite
METAR-TAF:

METAR-TAF

Flughäfen :

Bohrplattform

Ula, Norwegen

Breite: 59-06-39N, Länge: 2-50-45E, Höhe: 0 m

Beobachtung

Neuester Wetterbericht von vor 13 Minuten, um 13:20 UTC
Wind 22 kt aus Südwest
Temperatur 10°C
Luftfeuchtigkeit 93%
Luftdruck 1009 hPa
Sichtweite 10 km oder mehr

METAR: ENLA 231320Z AUTO 22022KT 9999NDV BKN036/// 10/09 Q1009 W///S4

Zeit: 15:33 (13:33 UTC)


TAF: fehlend

Wetterbeobachtungen und Prognosen von mehr als 4000 Flughäfen (METAR und TAF Bericht).

Die verfügbaren Stationen werden durch gelbe und rote Markierungen auf der Karte dargestellt.

Führen Sie die Maus auf sie, um den Namen der Station zu sehen.

Darauf klicken, um die Beobachtung von Wetterbeobachtungen und Prognosen zu sehen.

Um die Karte zu ändern : klicken Sie auf den grünen Tasten mit einem schwarzen Kreuz Zum Vergrößern, auf den grünen Button mit einem Gedankenstrich zu verkleinern, oder auf die grünen Pfeile für benachbarte Karten.


METAR-TAF: